sensor_id;sensor_type;location;lat;lon;timestamp;P1;durP1;ratioP1;P2;durP2;ratioP2
38117;SDS011;23928;47.562;7.508;2023-09-18T00:01:38;4.30;;;3.10;;
38117;SDS011;23928;47.562;7.508;2023-09-18T00:04:07;7.33;;;3.10;;
38117;SDS011;23928;47.562;7.508;2023-09-18T00:06:32;3.90;;;2.90;;
38117;SDS011;23928;47.562;7.508;2023-09-18T00:08:58;6.40;;;3.03;;
38117;SDS011;23928;47.562;7.508;2023-09-18T00:11:24;5.40;;;3.40;;
38117;SDS011;23928;47.562;7.508;2023-09-18T00:13:50;5.87;;;3.60;;
38117;SDS011;23928;47.562;7.508;2023-09-18T00:16:15;3.60;;;2.90;;
38117;SDS011;23928;47.562;7.508;2023-09-18T00:18:42;5.97;;;2.67;;
38117;SDS011;23928;47.562;7.508;2023-09-18T00:21:09;8.10;;;2.80;;
38117;SDS011;23928;47.562;7.508;2023-09-18T00:23:35;5.63;;;2.90;;
38117;SDS011;23928;47.562;7.508;2023-09-18T00:26:01;6.33;;;2.77;;
38117;SDS011;23928;47.562;7.508;2023-09-18T00:28:27;6.93;;;3.13;;
38117;SDS011;23928;47.562;7.508;2023-09-18T00:30:53;6.37;;;2.77;;
38117;SDS011;23928;47.562;7.508;2023-09-18T00:33:18;6.37;;;2.73;;
38117;SDS011;23928;47.562;7.508;2023-09-18T00:35:45;9.83;;;3.20;;
38117;SDS011;23928;47.562;7.508;2023-09-18T00:38:14;5.57;;;2.87;;
38117;SDS011;23928;47.562;7.508;2023-09-18T00:40:40;2.80;;;2.23;;
38117;SDS011;23928;47.562;7.508;2023-09-18T00:43:07;7.27;;;3.00;;
38117;SDS011;23928;47.562;7.508;2023-09-18T00:45:33;3.63;;;2.70;;
38117;SDS011;23928;47.562;7.508;2023-09-18T00:48:01;5.43;;;2.77;;
38117;SDS011;23928;47.562;7.508;2023-09-18T00:50:27;3.83;;;2.73;;
38117;SDS011;23928;47.562;7.508;2023-09-18T00:52:52;4.77;;;2.77;;
38117;SDS011;23928;47.562;7.508;2023-09-18T00:55:18;5.37;;;3.13;;
38117;SDS011;23928;47.562;7.508;2023-09-18T00:57:44;3.80;;;3.10;;
38117;SDS011;23928;47.562;7.508;2023-09-18T01:00:11;4.70;;;2.90;;
38117;SDS011;23928;47.562;7.508;2023-09-18T01:02:41;6.03;;;2.70;;
38117;SDS011;23928;47.562;7.508;2023-09-18T01:05:08;7.83;;;2.77;;
38117;SDS011;23928;47.562;7.508;2023-09-18T01:07:34;5.13;;;2.60;;
38117;SDS011;23928;47.562;7.508;2023-09-18T01:09:59;5.97;;;2.80;;
38117;SDS011;23928;47.562;7.508;2023-09-18T01:12:29;5.70;;;2.77;;
38117;SDS011;23928;47.562;7.508;2023-09-18T01:15:22;5.30;;;2.97;;
38117;SDS011;23928;47.562;7.508;2023-09-18T01:18:11;4.67;;;2.80;;
38117;SDS011;23928;47.562;7.508;2023-09-18T01:20:37;4.50;;;2.97;;
38117;SDS011;23928;47.562;7.508;2023-09-18T01:23:02;6.10;;;3.10;;
38117;SDS011;23928;47.562;7.508;2023-09-18T01:25:30;7.57;;;3.37;;
38117;SDS011;23928;47.562;7.508;2023-09-18T01:27:57;6.77;;;3.00;;
38117;SDS011;23928;47.562;7.508;2023-09-18T01:30:22;5.43;;;2.67;;
38117;SDS011;23928;47.562;7.508;2023-09-18T01:32:49;5.87;;;2.67;;
38117;SDS011;23928;47.562;7.508;2023-09-18T01:35:16;9.10;;;3.40;;
38117;SDS011;23928;47.562;7.508;2023-09-18T01:37:42;8.63;;;2.97;;
38117;SDS011;23928;47.562;7.508;2023-09-18T01:40:09;5.33;;;3.13;;
38117;SDS011;23928;47.562;7.508;2023-09-18T01:42:36;9.70;;;3.90;;
38117;SDS011;23928;47.562;7.508;2023-09-18T01:45:02;7.73;;;3.10;;
38117;SDS011;23928;47.562;7.508;2023-09-18T01:47:30;7.03;;;3.07;;
38117;SDS011;23928;47.562;7.508;2023-09-18T01:49:55;15.97;;;4.57;;
38117;SDS011;23928;47.562;7.508;2023-09-18T01:52:21;15.67;;;5.03;;
38117;SDS011;23928;47.562;7.508;2023-09-18T01:54:47;9.60;;;4.23;;
38117;SDS011;23928;47.562;7.508;2023-09-18T01:57:13;9.87;;;4.03;;
38117;SDS011;23928;47.562;7.508;2023-09-18T01:59:39;16.47;;;4.63;;
38117;SDS011;23928;47.562;7.508;2023-09-18T02:02:06;13.00;;;4.30;;
38117;SDS011;23928;47.562;7.508;2023-09-18T02:04:34;13.03;;;4.13;;
38117;SDS011;23928;47.562;7.508;2023-09-18T02:07:00;13.60;;;4.30;;
38117;SDS011;23928;47.562;7.508;2023-09-18T02:09:25;10.07;;;4.47;;
38117;SDS011;23928;47.562;7.508;2023-09-18T02:11:51;15.20;;;4.40;;
38117;SDS011;23928;47.562;7.508;2023-09-18T02:14:17;11.30;;;3.93;;
38117;SDS011;23928;47.562;7.508;2023-09-18T02:16:42;13.87;;;3.90;;
38117;SDS011;23928;47.562;7.508;2023-09-18T02:19:10;8.30;;;3.17;;
38117;SDS011;23928;47.562;7.508;2023-09-18T02:21:36;11.20;;;3.10;;
38117;SDS011;23928;47.562;7.508;2023-09-18T02:24:02;11.77;;;2.83;;
38117;SDS011;23928;47.562;7.508;2023-09-18T02:26:28;10.50;;;2.90;;
38117;SDS011;23928;47.562;7.508;2023-09-18T02:28:54;11.67;;;2.50;;
38117;SDS011;23928;47.562;7.508;2023-09-18T02:31:24;7.00;;;2.23;;
38117;SDS011;23928;47.562;7.508;2023-09-18T02:33:50;9.17;;;2.60;;
38117;SDS011;23928;47.562;7.508;2023-09-18T02:36:15;7.40;;;2.43;;
38117;SDS011;23928;47.562;7.508;2023-09-18T02:38:41;10.83;;;2.73;;
38117;SDS011;23928;47.562;7.508;2023-09-18T02:41:07;5.60;;;2.27;;
38117;SDS011;23928;47.562;7.508;2023-09-18T02:43:33;6.90;;;2.57;;
38117;SDS011;23928;47.562;7.508;2023-09-18T02:45:59;5.00;;;2.20;;
38117;SDS011;23928;47.562;7.508;2023-09-18T02:48:24;5.67;;;2.07;;
38117;SDS011;23928;47.562;7.508;2023-09-18T02:50:50;7.23;;;2.20;;
38117;SDS011;23928;47.562;7.508;2023-09-18T02:53:16;4.67;;;1.67;;
38117;SDS011;23928;47.562;7.508;2023-09-18T02:55:53;6.23;;;2.10;;
38117;SDS011;23928;47.562;7.508;2023-09-18T02:58:20;6.03;;;2.00;;
38117;SDS011;23928;47.562;7.508;2023-09-18T03:00:47;4.27;;;2.17;;
38117;SDS011;23928;47.562;7.508;2023-09-18T03:03:14;2.50;;;1.90;;
38117;SDS011;23928;47.562;7.508;2023-09-18T03:05:41;5.23;;;2.20;;
38117;SDS011;23928;47.562;7.508;2023-09-18T03:08:07;5.73;;;1.80;;
38117;SDS011;23928;47.562;7.508;2023-09-18T03:10:34;4.43;;;1.70;;
38117;SDS011;23928;47.562;7.508;2023-09-18T03:13:01;11.23;;;2.20;;
38117;SDS011;23928;47.562;7.508;2023-09-18T03:15:27;8.30;;;2.17;;
38117;SDS011;23928;47.562;7.508;2023-09-18T03:17:53;4.53;;;2.03;;
38117;SDS011;23928;47.562;7.508;2023-09-18T03:20:21;5.37;;;2.03;;
38117;SDS011;23928;47.562;7.508;2023-09-18T03:22:48;3.93;;;1.60;;
38117;SDS011;23928;47.562;7.508;2023-09-18T03:25:14;3.50;;;1.60;;
38117;SDS011;23928;47.562;7.508;2023-09-18T03:27:40;4.63;;;1.60;;
38117;SDS011;23928;47.562;7.508;2023-09-18T03:30:06;2.93;;;1.47;;
38117;SDS011;23928;47.562;7.508;2023-09-18T03:32:32;4.80;;;1.80;;
38117;SDS011;23928;47.562;7.508;2023-09-18T03:34:57;4.43;;;1.60;;
38117;SDS011;23928;47.562;7.508;2023-09-18T03:37:23;4.70;;;1.60;;
38117;SDS011;23928;47.562;7.508;2023-09-18T03:39:48;2.23;;;1.30;;
38117;SDS011;23928;47.562;7.508;2023-09-18T03:42:14;3.80;;;1.40;;
38117;SDS011;23928;47.562;7.508;2023-09-18T03:44:39;4.03;;;1.90;;
38117;SDS011;23928;47.562;7.508;2023-09-18T03:47:05;3.30;;;1.50;;
38117;SDS011;23928;47.562;7.508;2023-09-18T03:49:31;3.73;;;1.80;;
38117;SDS011;23928;47.562;7.508;2023-09-18T03:51:56;5.53;;;2.03;;
38117;SDS011;23928;47.562;7.508;2023-09-18T03:54:22;7.50;;;2.50;;
38117;SDS011;23928;47.562;7.508;2023-09-18T03:56:48;4.23;;;2.10;;
38117;SDS011;23928;47.562;7.508;2023-09-18T03:59:13;6.27;;;2.07;;
38117;SDS011;23928;47.562;7.508;2023-09-18T04:01:39;5.30;;;2.17;;
38117;SDS011;23928;47.562;7.508;2023-09-18T04:04:05;6.63;;;2.03;;
38117;SDS011;23928;47.562;7.508;2023-09-18T04:06:37;5.63;;;2.30;;
38117;SDS011;23928;47.562;7.508;2023-09-18T04:09:05;5.87;;;2.20;;
38117;SDS011;23928;47.562;7.508;2023-09-18T04:11:31;6.40;;;1.60;;
38117;SDS011;23928;47.562;7.508;2023-09-18T04:13:58;4.10;;;1.70;;
38117;SDS011;23928;47.562;7.508;2023-09-18T04:16:25;2.87;;;1.60;;
38117;SDS011;23928;47.562;7.508;2023-09-18T04:18:51;4.70;;;2.00;;
38117;SDS011;23928;47.562;7.508;2023-09-18T04:21:17;3.57;;;1.97;;
38117;SDS011;23928;47.562;7.508;2023-09-18T04:23:42;6.50;;;1.77;;
38117;SDS011;23928;47.562;7.508;2023-09-18T04:26:08;5.53;;;2.03;;
38117;SDS011;23928;47.562;7.508;2023-09-18T04:28:33;4.40;;;2.03;;
38117;SDS011;23928;47.562;7.508;2023-09-18T04:30:59;3.90;;;2.00;;
38117;SDS011;23928;47.562;7.508;2023-09-18T04:33:24;5.27;;;1.90;;
38117;SDS011;23928;47.562;7.508;2023-09-18T04:35:50;4.93;;;2.03;;
38117;SDS011;23928;47.562;7.508;2023-09-18T04:38:16;5.73;;;1.77;;
38117;SDS011;23928;47.562;7.508;2023-09-18T04:40:43;3.33;;;1.80;;
38117;SDS011;23928;47.562;7.508;2023-09-18T04:43:10;2.93;;;1.83;;
38117;SDS011;23928;47.562;7.508;2023-09-18T04:45:36;6.80;;;1.97;;
38117;SDS011;23928;47.562;7.508;2023-09-18T04:48:02;4.67;;;2.40;;
38117;SDS011;23928;47.562;7.508;2023-09-18T04:50:28;4.13;;;1.97;;
38117;SDS011;23928;47.562;7.508;2023-09-18T04:52:54;3.83;;;2.00;;
38117;SDS011;23928;47.562;7.508;2023-09-18T04:55:21;6.23;;;1.90;;
38117;SDS011;23928;47.562;7.508;2023-09-18T04:57:47;6.03;;;1.60;;
38117;SDS011;23928;47.562;7.508;2023-09-18T05:00:12;6.53;;;2.20;;
38117;SDS011;23928;47.562;7.508;2023-09-18T05:02:39;2.57;;;1.80;;
38117;SDS011;23928;47.562;7.508;2023-09-18T05:05:05;8.20;;;2.20;;
38117;SDS011;23928;47.562;7.508;2023-09-18T05:07:34;3.90;;;2.40;;
38117;SDS011;23928;47.562;7.508;2023-09-18T05:10:00;3.73;;;1.83;;
38117;SDS011;23928;47.562;7.508;2023-09-18T05:12:25;2.20;;;1.70;;
38117;SDS011;23928;47.562;7.508;2023-09-18T05:14:51;5.73;;;2.13;;
38117;SDS011;23928;47.562;7.508;2023-09-18T05:17:17;5.10;;;1.90;;
38117;SDS011;23928;47.562;7.508;2023-09-18T05:19:43;4.77;;;2.03;;
38117;SDS011;23928;47.562;7.508;2023-09-18T05:22:09;4.03;;;2.67;;
38117;SDS011;23928;47.562;7.508;2023-09-18T05:24:35;5.43;;;2.07;;
38117;SDS011;23928;47.562;7.508;2023-09-18T05:27:03;4.00;;;2.57;;
38117;SDS011;23928;47.562;7.508;2023-09-18T05:29:31;3.33;;;2.20;;
38117;SDS011;23928;47.562;7.508;2023-09-18T05:31:57;3.97;;;2.47;;
38117;SDS011;23928;47.562;7.508;2023-09-18T05:34:22;5.83;;;2.43;;
38117;SDS011;23928;47.562;7.508;2023-09-18T05:36:48;6.43;;;2.63;;
38117;SDS011;23928;47.562;7.508;2023-09-18T05:39:13;5.67;;;2.70;;
38117;SDS011;23928;47.562;7.508;2023-09-18T05:41:39;11.23;;;2.83;;
38117;SDS011;23928;47.562;7.508;2023-09-18T05:44:05;8.67;;;3.07;;
38117;SDS011;23928;47.562;7.508;2023-09-18T05:46:33;7.20;;;3.37;;
38117;SDS011;23928;47.562;7.508;2023-09-18T05:49:00;5.03;;;2.60;;
38117;SDS011;23928;47.562;7.508;2023-09-18T05:51:26;6.50;;;2.30;;
38117;SDS011;23928;47.562;7.508;2023-09-18T05:53:52;6.53;;;2.50;;
38117;SDS011;23928;47.562;7.508;2023-09-18T05:56:18;3.13;;;2.30;;
38117;SDS011;23928;47.562;7.508;2023-09-18T05:58:43;4.87;;;2.43;;
38117;SDS011;23928;47.562;7.508;2023-09-18T06:01:09;6.30;;;2.77;;
38117;SDS011;23928;47.562;7.508;2023-09-18T06:03:35;11.10;;;3.80;;
38117;SDS011;23928;47.562;7.508;2023-09-18T06:06:04;7.33;;;2.77;;
38117;SDS011;23928;47.562;7.508;2023-09-18T06:08:30;6.73;;;2.80;;
38117;SDS011;23928;47.562;7.508;2023-09-18T06:10:57;6.37;;;2.97;;
38117;SDS011;23928;47.562;7.508;2023-09-18T06:13:26;5.83;;;2.37;;
38117;SDS011;23928;47.562;7.508;2023-09-18T06:15:53;4.83;;;3.00;;
38117;SDS011;23928;47.562;7.508;2023-09-18T06:18:20;4.57;;;2.60;;
38117;SDS011;23928;47.562;7.508;2023-09-18T06:20:47;6.33;;;2.43;;
38117;SDS011;23928;47.562;7.508;2023-09-18T06:23:13;5.50;;;2.87;;
38117;SDS011;23928;47.562;7.508;2023-09-18T06:25:41;6.97;;;2.80;;
38117;SDS011;23928;47.562;7.508;2023-09-18T06:28:07;4.50;;;2.50;;
38117;SDS011;23928;47.562;7.508;2023-09-18T06:30:32;6.47;;;2.73;;
38117;SDS011;23928;47.562;7.508;2023-09-18T06:33:02;6.57;;;3.20;;
38117;SDS011;23928;47.562;7.508;2023-09-18T06:35:29;7.40;;;3.20;;
38117;SDS011;23928;47.562;7.508;2023-09-18T06:37:54;4.43;;;2.40;;
38117;SDS011;23928;47.562;7.508;2023-09-18T06:40:23;7.67;;;2.87;;
38117;SDS011;23928;47.562;7.508;2023-09-18T06:42:50;5.13;;;2.90;;
38117;SDS011;23928;47.562;7.508;2023-09-18T06:45:16;7.27;;;2.63;;
38117;SDS011;23928;47.562;7.508;2023-09-18T06:47:42;6.10;;;2.70;;
38117;SDS011;23928;47.562;7.508;2023-09-18T06:50:08;8.13;;;2.93;;
38117;SDS011;23928;47.562;7.508;2023-09-18T06:52:34;5.53;;;2.67;;
38117;SDS011;23928;47.562;7.508;2023-09-18T06:55:00;5.93;;;2.97;;
38117;SDS011;23928;47.562;7.508;2023-09-18T06:57:26;6.17;;;3.27;;
38117;SDS011;23928;47.562;7.508;2023-09-18T06:59:52;6.93;;;3.50;;
38117;SDS011;23928;47.562;7.508;2023-09-18T07:02:18;6.53;;;3.40;;
38117;SDS011;23928;47.562;7.508;2023-09-18T07:04:44;6.80;;;3.27;;
38117;SDS011;23928;47.562;7.508;2023-09-18T07:07:12;7.90;;;3.70;;
38117;SDS011;23928;47.562;7.508;2023-09-18T07:09:39;9.70;;;3.23;;
38117;SDS011;23928;47.562;7.508;2023-09-18T07:12:06;5.83;;;3.00;;
38117;SDS011;23928;47.562;7.508;2023-09-18T07:14:34;5.53;;;2.80;;
38117;SDS011;23928;47.562;7.508;2023-09-18T07:17:00;7.00;;;3.07;;
38117;SDS011;23928;47.562;7.508;2023-09-18T07:19:26;4.37;;;2.53;;
38117;SDS011;23928;47.562;7.508;2023-09-18T07:21:51;6.17;;;2.30;;
38117;SDS011;23928;47.562;7.508;2023-09-18T07:24:17;4.97;;;2.43;;
38117;SDS011;23928;47.562;7.508;2023-09-18T07:26:46;5.23;;;2.67;;
38117;SDS011;23928;47.562;7.508;2023-09-18T07:29:13;5.00;;;2.47;;
38117;SDS011;23928;47.562;7.508;2023-09-18T07:31:40;7.00;;;2.13;;
38117;SDS011;23928;47.562;7.508;2023-09-18T07:34:06;4.40;;;2.33;;
38117;SDS011;23928;47.562;7.508;2023-09-18T07:36:32;6.43;;;2.10;;
38117;SDS011;23928;47.562;7.508;2023-09-18T07:38:57;5.33;;;2.30;;
38117;SDS011;23928;47.562;7.508;2023-09-18T07:41:23;6.77;;;2.40;;
38117;SDS011;23928;47.562;7.508;2023-09-18T07:43:50;4.03;;;2.10;;
38117;SDS011;23928;47.562;7.508;2023-09-18T07:46:15;4.97;;;2.10;;
38117;SDS011;23928;47.562;7.508;2023-09-18T07:48:41;4.73;;;2.20;;
38117;SDS011;23928;47.562;7.508;2023-09-18T07:51:10;5.30;;;2.20;;
38117;SDS011;23928;47.562;7.508;2023-09-18T07:53:36;4.60;;;1.90;;
38117;SDS011;23928;47.562;7.508;2023-09-18T07:56:02;3.10;;;2.00;;
38117;SDS011;23928;47.562;7.508;2023-09-18T07:58:29;10.27;;;2.50;;
38117;SDS011;23928;47.562;7.508;2023-09-18T08:00:55;3.97;;;1.90;;
38117;SDS011;23928;47.562;7.508;2023-09-18T08:03:24;2.60;;;1.70;;
38117;SDS011;23928;47.562;7.508;2023-09-18T08:05:51;3.80;;;2.03;;
38117;SDS011;23928;47.562;7.508;2023-09-18T08:08:18;3.00;;;1.87;;
38117;SDS011;23928;47.562;7.508;2023-09-18T08:10:48;5.33;;;1.93;;
38117;SDS011;23928;47.562;7.508;2023-09-18T08:13:14;4.87;;;1.70;;
38117;SDS011;23928;47.562;7.508;2023-09-18T08:15:40;4.10;;;1.60;;
38117;SDS011;23928;47.562;7.508;2023-09-18T08:18:05;4.60;;;1.50;;
38117;SDS011;23928;47.562;7.508;2023-09-18T08:20:31;3.93;;;1.53;;
38117;SDS011;23928;47.562;7.508;2023-09-18T08:22:58;3.53;;;2.00;;
38117;SDS011;23928;47.562;7.508;2023-09-18T08:25:26;4.30;;;1.50;;
38117;SDS011;23928;47.562;7.508;2023-09-18T08:27:52;3.77;;;1.20;;
38117;SDS011;23928;47.562;7.508;2023-09-18T08:30:18;5.90;;;1.67;;
38117;SDS011;23928;47.562;7.508;2023-09-18T08:32:46;3.23;;;1.43;;
38117;SDS011;23928;47.562;7.508;2023-09-18T08:35:12;1.70;;;1.27;;
38117;SDS011;23928;47.562;7.508;2023-09-18T08:37:41;1.80;;;1.27;;
38117;SDS011;23928;47.562;7.508;2023-09-18T08:40:09;2.67;;;1.40;;
38117;SDS011;23928;47.562;7.508;2023-09-18T08:42:38;3.00;;;1.30;;
38117;SDS011;23928;47.562;7.508;2023-09-18T08:45:08;3.40;;;1.30;;
38117;SDS011;23928;47.562;7.508;2023-09-18T08:47:35;3.57;;;1.33;;
38117;SDS011;23928;47.562;7.508;2023-09-18T08:50:04;3.23;;;1.50;;
38117;SDS011;23928;47.562;7.508;2023-09-18T08:52:32;2.20;;;1.50;;
38117;SDS011;23928;47.562;7.508;2023-09-18T08:54:58;2.67;;;1.30;;
38117;SDS011;23928;47.562;7.508;2023-09-18T08:57:25;3.57;;;1.20;;
38117;SDS011;23928;47.562;7.508;2023-09-18T08:59:53;5.47;;;1.60;;
38117;SDS011;23928;47.562;7.508;2023-09-18T09:02:20;2.87;;;1.00;;
38117;SDS011;23928;47.562;7.508;2023-09-18T09:04:46;2.17;;;1.43;;
38117;SDS011;23928;47.562;7.508;2023-09-18T09:07:11;2.57;;;1.33;;
38117;SDS011;23928;47.562;7.508;2023-09-18T09:09:37;4.10;;;1.40;;
38117;SDS011;23928;47.562;7.508;2023-09-18T09:12:03;4.13;;;1.50;;
38117;SDS011;23928;47.562;7.508;2023-09-18T09:14:29;3.00;;;1.23;;
38117;SDS011;23928;47.562;7.508;2023-09-18T09:16:55;2.27;;;1.20;;
38117;SDS011;23928;47.562;7.508;2023-09-18T09:19:30;3.23;;;1.30;;
38117;SDS011;23928;47.562;7.508;2023-09-18T09:21:58;2.57;;;1.27;;
38117;SDS011;23928;47.562;7.508;2023-09-18T09:27:03;3.77;;;1.30;;
38117;SDS011;23928;47.562;7.508;2023-09-18T09:29:28;4.10;;;1.60;;
38117;SDS011;23928;47.562;7.508;2023-09-18T09:31:55;2.53;;;1.27;;
38117;SDS011;23928;47.562;7.508;2023-09-18T09:34:25;2.93;;;1.60;;
38117;SDS011;23928;47.562;7.508;2023-09-18T09:36:52;3.20;;;1.30;;
38117;SDS011;23928;47.562;7.508;2023-09-18T09:39:19;2.83;;;1.30;;
38117;SDS011;23928;47.562;7.508;2023-09-18T09:41:47;5.73;;;1.40;;
38117;SDS011;23928;47.562;7.508;2023-09-18T09:44:14;1.97;;;1.20;;
38117;SDS011;23928;47.562;7.508;2023-09-18T09:46:58;1.93;;;1.40;;
38117;SDS011;23928;47.562;7.508;2023-09-18T09:49:24;3.73;;;1.57;;
38117;SDS011;23928;47.562;7.508;2023-09-18T09:51:53;1.90;;;0.97;;
38117;SDS011;23928;47.562;7.508;2023-09-18T09:54:40;1.30;;;1.10;;
38117;SDS011;23928;47.562;7.508;2023-09-18T09:57:06;4.10;;;1.63;;
38117;SDS011;23928;47.562;7.508;2023-09-18T09:59:31;3.23;;;1.60;;
38117;SDS011;23928;47.562;7.508;2023-09-18T10:02:00;3.47;;;1.53;;
38117;SDS011;23928;47.562;7.508;2023-09-18T10:04:27;2.67;;;1.43;;
38117;SDS011;23928;47.562;7.508;2023-09-18T10:06:58;2.60;;;1.40;;
38117;SDS011;23928;47.562;7.508;2023-09-18T10:09:32;3.07;;;1.70;;
38117;SDS011;23928;47.562;7.508;2023-09-18T10:12:00;3.47;;;1.30;;
38117;SDS011;23928;47.562;7.508;2023-09-18T10:14:32;3.37;;;1.57;;
38117;SDS011;23928;47.562;7.508;2023-09-18T10:17:04;2.73;;;1.40;;
38117;SDS011;23928;47.562;7.508;2023-09-18T10:22:32;2.13;;;1.63;;
38117;SDS011;23928;47.562;7.508;2023-09-18T10:25:10;1.50;;;1.20;;
38117;SDS011;23928;47.562;7.508;2023-09-18T10:27:43;2.13;;;1.37;;
38117;SDS011;23928;47.562;7.508;2023-09-18T10:30:14;4.63;;;1.50;;
38117;SDS011;23928;47.562;7.508;2023-09-18T10:32:43;4.80;;;1.60;;
38117;SDS011;23928;47.562;7.508;2023-09-18T10:35:11;1.93;;;1.50;;
38117;SDS011;23928;47.562;7.508;2023-09-18T10:37:37;4.23;;;1.43;;
38117;SDS011;23928;47.562;7.508;2023-09-18T10:40:05;3.20;;;1.33;;
38117;SDS011;23928;47.562;7.508;2023-09-18T10:42:33;2.70;;;1.50;;
38117;SDS011;23928;47.562;7.508;2023-09-18T10:45:00;2.23;;;1.60;;
38117;SDS011;23928;47.562;7.508;2023-09-18T10:47:29;1.87;;;1.50;;
38117;SDS011;23928;47.562;7.508;2023-09-18T10:49:57;4.13;;;1.70;;
38117;SDS011;23928;47.562;7.508;2023-09-18T10:52:23;4.30;;;1.63;;
38117;SDS011;23928;47.562;7.508;2023-09-18T10:54:48;4.50;;;1.73;;
38117;SDS011;23928;47.562;7.508;2023-09-18T10:57:14;3.03;;;1.53;;
38117;SDS011;23928;47.562;7.508;2023-09-18T10:59:43;3.43;;;1.70;;
38117;SDS011;23928;47.562;7.508;2023-09-18T11:02:13;4.00;;;2.27;;
38117;SDS011;23928;47.562;7.508;2023-09-18T11:04:40;4.57;;;1.70;;
38117;SDS011;23928;47.562;7.508;2023-09-18T11:07:07;4.20;;;1.87;;
38117;SDS011;23928;47.562;7.508;2023-09-18T11:09:40;5.03;;;1.97;;
38117;SDS011;23928;47.562;7.508;2023-09-18T11:12:11;4.70;;;2.13;;
38117;SDS011;23928;47.562;7.508;2023-09-18T11:14:41;3.70;;;2.13;;
38117;SDS011;23928;47.562;7.508;2023-09-18T11:17:33;2.80;;;2.00;;
38117;SDS011;23928;47.562;7.508;2023-09-18T11:22:37;3.63;;;1.60;;
38117;SDS011;23928;47.562;7.508;2023-09-18T11:28:43;2.77;;;1.60;;
38117;SDS011;23928;47.562;7.508;2023-09-18T11:31:03;2.93;;;1.73;;
38117;SDS011;23928;47.562;7.508;2023-09-18T11:33:38;3.40;;;1.50;;
38117;SDS011;23928;47.562;7.508;2023-09-18T11:38:57;3.47;;;1.80;;
38117;SDS011;23928;47.562;7.508;2023-09-18T11:41:29;4.60;;;1.60;;
38117;SDS011;23928;47.562;7.508;2023-09-18T11:46:39;4.03;;;1.70;;
38117;SDS011;23928;47.562;7.508;2023-09-18T11:49:06;2.00;;;1.80;;
38117;SDS011;23928;47.562;7.508;2023-09-18T11:51:34;3.63;;;1.60;;
38117;SDS011;23928;47.562;7.508;2023-09-18T11:54:01;3.00;;;1.27;;
38117;SDS011;23928;47.562;7.508;2023-09-18T11:56:28;2.67;;;1.17;;
38117;SDS011;23928;47.562;7.508;2023-09-18T11:58:54;2.53;;;1.40;;
38117;SDS011;23928;47.562;7.508;2023-09-18T12:01:20;2.50;;;1.27;;
38117;SDS011;23928;47.562;7.508;2023-09-18T12:03:53;4.10;;;1.30;;
38117;SDS011;23928;47.562;7.508;2023-09-18T12:06:19;3.00;;;1.37;;
38117;SDS011;23928;47.562;7.508;2023-09-18T12:08:46;3.50;;;1.63;;
38117;SDS011;23928;47.562;7.508;2023-09-18T12:11:13;4.40;;;1.70;;
38117;SDS011;23928;47.562;7.508;2023-09-18T12:13:42;2.30;;;1.47;;
38117;SDS011;23928;47.562;7.508;2023-09-18T12:16:08;2.40;;;1.60;;
38117;SDS011;23928;47.562;7.508;2023-09-18T12:18:34;2.57;;;1.50;;
38117;SDS011;23928;47.562;7.508;2023-09-18T12:21:05;4.57;;;1.77;;
38117;SDS011;23928;47.562;7.508;2023-09-18T12:23:37;2.17;;;1.50;;
38117;SDS011;23928;47.562;7.508;2023-09-18T12:26:04;1.73;;;1.50;;
38117;SDS011;23928;47.562;7.508;2023-09-18T12:28:32;3.97;;;1.43;;
38117;SDS011;23928;47.562;7.508;2023-09-18T12:31:00;4.80;;;1.67;;
38117;SDS011;23928;47.562;7.508;2023-09-18T12:33:29;3.07;;;1.30;;
38117;SDS011;23928;47.562;7.508;2023-09-18T12:35:58;2.27;;;1.10;;
38117;SDS011;23928;47.562;7.508;2023-09-18T12:38:24;4.27;;;1.23;;
38117;SDS011;23928;47.562;7.508;2023-09-18T12:40:52;1.80;;;1.30;;
38117;SDS011;23928;47.562;7.508;2023-09-18T12:43:19;2.57;;;1.07;;
38117;SDS011;23928;47.562;7.508;2023-09-18T12:45:47;0.93;;;0.80;;
38117;SDS011;23928;47.562;7.508;2023-09-18T12:48:14;2.77;;;1.40;;
38117;SDS011;23928;47.562;7.508;2023-09-18T12:50:40;1.57;;;1.00;;
38117;SDS011;23928;47.562;7.508;2023-09-18T12:53:12;1.63;;;1.07;;
38117;SDS011;23928;47.562;7.508;2023-09-18T12:55:40;1.30;;;1.20;;
38117;SDS011;23928;47.562;7.508;2023-09-18T12:58:10;1.53;;;1.20;;
38117;SDS011;23928;47.562;7.508;2023-09-18T13:00:36;1.50;;;1.20;;
38117;SDS011;23928;47.562;7.508;2023-09-18T13:03:04;2.97;;;1.20;;
38117;SDS011;23928;47.562;7.508;2023-09-18T13:05:31;2.70;;;1.43;;
38117;SDS011;23928;47.562;7.508;2023-09-18T13:08:03;1.70;;;1.23;;
38117;SDS011;23928;47.562;7.508;2023-09-18T13:13:15;2.67;;;1.00;;
38117;SDS011;23928;47.562;7.508;2023-09-18T13:15:41;1.73;;;1.13;;
38117;SDS011;23928;47.562;7.508;2023-09-18T13:18:10;1.67;;;1.03;;
38117;SDS011;23928;47.562;7.508;2023-09-18T13:20:38;3.07;;;1.33;;
38117;SDS011;23928;47.562;7.508;2023-09-18T13:23:07;3.00;;;1.40;;
38117;SDS011;23928;47.562;7.508;2023-09-18T13:25:35;1.20;;;1.10;;
38117;SDS011;23928;47.562;7.508;2023-09-18T13:28:04;2.53;;;1.53;;
38117;SDS011;23928;47.562;7.508;2023-09-18T13:30:32;2.97;;;1.53;;
38117;SDS011;23928;47.562;7.508;2023-09-18T13:33:11;1.40;;;1.10;;
38117;SDS011;23928;47.562;7.508;2023-09-18T13:35:42;1.57;;;1.40;;
38117;SDS011;23928;47.562;7.508;2023-09-18T13:38:09;2.70;;;1.13;;
38117;SDS011;23928;47.562;7.508;2023-09-18T13:40:39;2.40;;;1.00;;
38117;SDS011;23928;47.562;7.508;2023-09-18T13:43:05;2.20;;;1.27;;
38117;SDS011;23928;47.562;7.508;2023-09-18T13:45:32;3.77;;;1.43;;
38117;SDS011;23928;47.562;7.508;2023-09-18T13:48:00;2.07;;;1.43;;
38117;SDS011;23928;47.562;7.508;2023-09-18T13:50:25;2.20;;;1.50;;
38117;SDS011;23928;47.562;7.508;2023-09-18T13:52:51;3.07;;;1.37;;
38117;SDS011;23928;47.562;7.508;2023-09-18T13:55:17;7.23;;;1.70;;
38117;SDS011;23928;47.562;7.508;2023-09-18T13:57:43;2.03;;;1.57;;
38117;SDS011;23928;47.562;7.508;2023-09-18T14:00:09;4.93;;;1.40;;
38117;SDS011;23928;47.562;7.508;2023-09-18T14:02:39;3.20;;;1.20;;
38117;SDS011;23928;47.562;7.508;2023-09-18T14:05:06;1.73;;;1.27;;
38117;SDS011;23928;47.562;7.508;2023-09-18T14:07:32;2.03;;;1.50;;
38117;SDS011;23928;47.562;7.508;2023-09-18T14:09:58;2.33;;;1.17;;
38117;SDS011;23928;47.562;7.508;2023-09-18T14:12:24;2.83;;;1.40;;
38117;SDS011;23928;47.562;7.508;2023-09-18T14:14:50;1.77;;;1.10;;
38117;SDS011;23928;47.562;7.508;2023-09-18T14:17:16;1.73;;;1.30;;
38117;SDS011;23928;47.562;7.508;2023-09-18T14:19:46;2.43;;;1.30;;
38117;SDS011;23928;47.562;7.508;2023-09-18T14:22:12;1.27;;;1.10;;
38117;SDS011;23928;47.562;7.508;2023-09-18T14:24:39;3.67;;;1.70;;
38117;SDS011;23928;47.562;7.508;2023-09-18T14:27:05;3.87;;;1.50;;
38117;SDS011;23928;47.562;7.508;2023-09-18T14:29:31;1.20;;;1.10;;
38117;SDS011;23928;47.562;7.508;2023-09-18T14:31:58;1.50;;;1.23;;
38117;SDS011;23928;47.562;7.508;2023-09-18T14:34:29;1.87;;;1.33;;
38117;SDS011;23928;47.562;7.508;2023-09-18T14:37:00;3.90;;;1.47;;
38117;SDS011;23928;47.562;7.508;2023-09-18T14:39:28;3.77;;;1.90;;
38117;SDS011;23928;47.562;7.508;2023-09-18T14:41:55;2.17;;;1.40;;
38117;SDS011;23928;47.562;7.508;2023-09-18T14:44:20;1.50;;;1.40;;
38117;SDS011;23928;47.562;7.508;2023-09-18T14:46:46;1.20;;;1.10;;
38117;SDS011;23928;47.562;7.508;2023-09-18T14:49:12;3.63;;;1.33;;
38117;SDS011;23928;47.562;7.508;2023-09-18T14:51:37;1.43;;;1.30;;
38117;SDS011;23928;47.562;7.508;2023-09-18T14:54:03;2.00;;;1.40;;
38117;SDS011;23928;47.562;7.508;2023-09-18T14:56:29;3.40;;;1.20;;
38117;SDS011;23928;47.562;7.508;2023-09-18T14:58:55;1.30;;;1.17;;
38117;SDS011;23928;47.562;7.508;2023-09-18T15:01:28;1.60;;;1.20;;
38117;SDS011;23928;47.562;7.508;2023-09-18T15:03:54;5.00;;;1.70;;
38117;SDS011;23928;47.562;7.508;2023-09-18T15:06:20;4.97;;;1.63;;
38117;SDS011;23928;47.562;7.508;2023-09-18T15:08:45;2.67;;;1.40;;